createdAt,value
2023-02-07T00:01:48.450Z,4.75
2023-02-07T00:04:14.708Z,4.65
2023-02-07T00:06:41.004Z,4.35
2023-02-07T00:09:07.896Z,4.95
2023-02-07T00:14:00.383Z,5.43
2023-02-07T00:16:27.145Z,6.25
2023-02-07T00:18:53.770Z,4.75
2023-02-07T00:21:23.127Z,5.10
2023-02-07T00:23:49.361Z,5.18
2023-02-07T00:26:16.407Z,5.32
2023-02-07T00:28:42.900Z,5.07
2023-02-07T00:31:09.326Z,5.53
2023-02-07T00:33:36.522Z,5.43
2023-02-07T00:36:05.136Z,4.88
2023-02-07T00:38:31.415Z,4.28
2023-02-07T00:40:57.763Z,4.47
2023-02-07T00:43:29.576Z,5.65
2023-02-07T00:45:57.400Z,5.22
2023-02-07T00:48:23.700Z,5.18
2023-02-07T00:50:49.967Z,5.47
2023-02-07T00:53:16.273Z,4.53
2023-02-07T00:55:42.531Z,5.00
2023-02-07T00:58:08.763Z,5.22
2023-02-07T01:00:34.993Z,4.95
2023-02-07T01:03:01.232Z,5.30
2023-02-07T01:05:27.529Z,5.43
2023-02-07T01:07:53.805Z,5.95
2023-02-07T01:10:20.809Z,5.68
2023-02-07T01:12:47.065Z,5.68
2023-02-07T01:15:13.294Z,5.57
2023-02-07T01:17:39.514Z,5.55
2023-02-07T01:20:05.985Z,5.63
2023-02-07T01:22:32.235Z,5.68
2023-02-07T01:24:58.460Z,5.38
2023-02-07T01:27:24.870Z,5.45
2023-02-07T01:29:51.107Z,5.95
2023-02-07T01:32:17.413Z,6.07
2023-02-07T01:34:43.696Z,5.97
2023-02-07T01:37:09.911Z,6.45
2023-02-07T01:39:36.141Z,5.82
2023-02-07T01:42:02.360Z,6.38
2023-02-07T01:44:28.560Z,6.13
2023-02-07T01:46:55.551Z,6.32
2023-02-07T01:49:23.776Z,6.53
2023-02-07T01:52:02.244Z,5.72
2023-02-07T01:54:32.283Z,6.20
2023-02-07T01:56:59.585Z,6.75
2023-02-07T01:59:27.094Z,6.85
2023-02-07T02:01:53.790Z,6.72
2023-02-07T02:04:20.165Z,6.75
2023-02-07T02:06:46.605Z,7.60
2023-02-07T02:09:14.470Z,6.38
2023-02-07T02:11:49.928Z,6.05
2023-02-07T02:14:34.580Z,6.60
2023-02-07T02:17:13.998Z,7.03
2023-02-07T02:19:55.190Z,6.90
2023-02-07T02:22:32.222Z,7.07
2023-02-07T02:25:15.214Z,8.23
2023-02-07T02:28:03.163Z,8.07
2023-02-07T02:30:41.515Z,7.93
2023-02-07T02:33:14.134Z,8.23
2023-02-07T02:35:44.942Z,7.93
2023-02-07T02:38:21.847Z,8.30
2023-02-07T02:41:11.228Z,7.95
2023-02-07T02:43:45.388Z,7.93
2023-02-07T02:46:14.643Z,8.43
2023-02-07T02:48:41.877Z,8.98
2023-02-07T02:51:08.104Z,8.40
2023-02-07T02:53:34.373Z,8.73
2023-02-07T02:56:12.930Z,8.95
2023-02-07T02:58:48.847Z,8.43
2023-02-07T03:01:23.448Z,7.95
2023-02-07T03:03:54.946Z,8.38
2023-02-07T03:06:24.733Z,8.48
2023-02-07T03:08:54.101Z,8.82
2023-02-07T03:11:22.319Z,9.27
2023-02-07T03:14:13.701Z,9.27
2023-02-07T03:16:57.072Z,10.95
2023-02-07T03:19:35.355Z,9.85
2023-02-07T03:22:10.450Z,9.30
2023-02-07T03:24:38.900Z,9.38
2023-02-07T03:27:06.908Z,10.10
2023-02-07T03:29:34.861Z,9.52
2023-02-07T03:32:03.258Z,9.65
2023-02-07T03:34:31.883Z,9.43
2023-02-07T03:37:10.319Z,9.80
2023-02-07T03:39:36.659Z,9.55
2023-02-07T03:42:06.141Z,10.02
2023-02-07T03:44:34.464Z,8.77
2023-02-07T03:47:00.682Z,9.88
2023-02-07T03:49:27.002Z,10.45
2023-02-07T03:51:53.434Z,9.98
2023-02-07T03:54:19.700Z,10.15
2023-02-07T03:56:45.913Z,11.05
2023-02-07T03:59:12.269Z,9.40
2023-02-07T04:01:42.043Z,10.48
2023-02-07T04:04:09.190Z,10.75
2023-02-07T04:06:35.589Z,10.60
2023-02-07T04:09:02.243Z,10.02
2023-02-07T04:11:28.511Z,10.57
2023-02-07T04:13:54.814Z,10.23
2023-02-07T04:16:21.087Z,11.50
2023-02-07T04:18:47.313Z,10.48
2023-02-07T04:21:13.576Z,10.07
2023-02-07T04:23:39.854Z,12.25
2023-02-07T04:26:06.160Z,12.40
2023-02-07T04:28:32.403Z,10.98
2023-02-07T04:30:58.695Z,11.82
2023-02-07T04:33:24.980Z,11.85
2023-02-07T04:35:55.267Z,11.63
2023-02-07T04:38:21.517Z,10.80
2023-02-07T04:40:47.774Z,13.27
2023-02-07T04:43:13.992Z,13.32
2023-02-07T04:45:40.765Z,11.13
2023-02-07T04:48:07.093Z,12.05
2023-02-07T04:50:33.322Z,11.95
2023-02-07T04:52:59.539Z,11.38
2023-02-07T04:55:25.801Z,11.55
2023-02-07T04:57:52.016Z,13.85
2023-02-07T05:00:18.456Z,11.50
2023-02-07T05:02:44.854Z,12.02
2023-02-07T05:05:11.110Z,11.75
2023-02-07T05:07:37.340Z,12.20
2023-02-07T05:10:03.655Z,11.15
2023-02-07T05:12:29.889Z,11.63
2023-02-07T05:14:57.948Z,11.40
2023-02-07T05:17:25.288Z,12.73
2023-02-07T05:19:51.535Z,12.50
2023-02-07T05:22:17.811Z,12.20
2023-02-07T05:24:44.065Z,11.82
2023-02-07T05:27:10.309Z,12.57
2023-02-07T05:29:36.512Z,13.30
2023-02-07T05:32:21.630Z,11.10
2023-02-07T05:34:47.864Z,11.85
2023-02-07T05:37:14.102Z,11.88
2023-02-07T05:39:40.335Z,14.07
2023-02-07T05:42:06.595Z,17.80
2023-02-07T05:44:32.848Z,15.52
2023-02-07T05:46:59.092Z,14.20
2023-02-07T05:49:25.292Z,14.10
2023-02-07T05:51:51.526Z,12.50
2023-02-07T05:54:17.747Z,13.52
2023-02-07T05:56:44.096Z,14.38
2023-02-07T05:59:10.574Z,13.60
2023-02-07T06:01:37.443Z,14.75
2023-02-07T06:04:03.896Z,13.95
2023-02-07T06:06:30.132Z,14.85
2023-02-07T06:08:58.307Z,13.30
2023-02-07T06:11:24.553Z,13.77
2023-02-07T06:13:50.942Z,14.95
2023-02-07T06:16:17.320Z,13.38
2023-02-07T06:18:43.573Z,13.95
2023-02-07T06:21:09.863Z,13.38
2023-02-07T06:23:36.113Z,14.13
2023-02-07T06:26:02.353Z,15.45
2023-02-07T06:28:28.606Z,13.77
2023-02-07T06:30:54.939Z,15.52
2023-02-07T06:33:21.224Z,14.85
2023-02-07T06:35:47.555Z,14.98
2023-02-07T06:38:14.744Z,18.05
2023-02-07T06:40:41.285Z,17.38
2023-02-07T06:43:08.995Z,17.75
2023-02-07T06:45:35.401Z,16.83
2023-02-07T06:48:01.916Z,15.30
2023-02-07T06:50:28.314Z,15.57
2023-02-07T06:52:54.550Z,17.35
2023-02-07T06:55:20.860Z,15.93
2023-02-07T06:57:47.096Z,14.98
2023-02-07T07:00:13.633Z,16.02
2023-02-07T07:02:39.954Z,16.08
2023-02-07T07:05:06.436Z,17.08
2023-02-07T07:07:32.656Z,15.85
2023-02-07T07:09:58.959Z,15.45
2023-02-07T07:12:25.445Z,15.00
2023-02-07T07:14:51.673Z,14.55
2023-02-07T07:17:17.943Z,13.40
2023-02-07T07:19:44.159Z,14.70
2023-02-07T07:22:10.404Z,14.02
2023-02-07T07:24:36.632Z,14.40
2023-02-07T07:27:03.026Z,10.73
2023-02-07T07:29:29.246Z,14.18
2023-02-07T07:31:55.550Z,14.30
2023-02-07T07:34:21.786Z,14.93
2023-02-07T07:36:48.014Z,14.70
2023-02-07T07:39:14.627Z,14.30
2023-02-07T07:41:41.368Z,15.13
2023-02-07T07:46:33.857Z,13.90
2023-02-07T07:49:00.118Z,13.30
2023-02-07T07:51:26.353Z,15.32
2023-02-07T07:53:52.576Z,14.18
2023-02-07T07:56:18.831Z,14.30
2023-02-07T07:58:45.081Z,13.18
2023-02-07T08:01:11.383Z,13.95
2023-02-07T08:03:37.685Z,13.80
2023-02-07T08:06:04.111Z,13.82
2023-02-07T08:08:30.352Z,13.95
2023-02-07T08:11:00.951Z,12.65
2023-02-07T08:13:29.614Z,13.98
2023-02-07T08:15:58.610Z,13.52
2023-02-07T08:18:24.876Z,13.95
2023-02-07T08:20:51.251Z,13.32
2023-02-07T08:23:17.452Z,14.05
2023-02-07T08:25:43.728Z,13.82
2023-02-07T08:28:10.019Z,13.57
2023-02-07T08:30:36.290Z,14.10
2023-02-07T08:33:02.603Z,11.57
2023-02-07T08:35:28.822Z,12.80
2023-02-07T08:37:55.909Z,12.10
2023-02-07T08:40:22.119Z,12.57
2023-02-07T08:42:48.348Z,12.60
2023-02-07T08:45:17.532Z,11.07
2023-02-07T08:47:44.718Z,12.07
2023-02-07T08:50:11.762Z,12.02
2023-02-07T08:52:38.081Z,12.10
2023-02-07T08:55:04.489Z,11.07
2023-02-07T08:57:30.897Z,9.50
2023-02-07T08:59:57.386Z,10.15
2023-02-07T09:02:23.803Z,11.52
2023-02-07T09:04:50.116Z,9.82
2023-02-07T09:07:16.386Z,11.20
2023-02-07T09:09:42.622Z,11.30
2023-02-07T09:12:09.716Z,10.18
2023-02-07T09:14:36.098Z,10.18
2023-02-07T09:17:02.590Z,10.38
2023-02-07T09:19:28.846Z,10.27
2023-02-07T09:21:55.258Z,10.77
2023-02-07T09:24:21.480Z,10.88
2023-02-07T09:26:47.740Z,10.30
2023-02-07T09:29:14.520Z,10.13
2023-02-07T09:31:40.945Z,10.73
2023-02-07T09:34:07.511Z,10.23
2023-02-07T09:36:33.915Z,10.93
2023-02-07T09:39:00.283Z,11.88
2023-02-07T09:41:45.008Z,11.57
2023-02-07T09:44:20.451Z,20.75
2023-02-07T09:46:52.549Z,13.07
2023-02-07T09:49:30.846Z,10.93
2023-02-07T09:51:58.453Z,10.50
2023-02-07T09:54:26.677Z,12.10
2023-02-07T09:56:54.815Z,10.80
2023-02-07T09:59:24.829Z,11.23
2023-02-07T10:01:53.841Z,9.57
2023-02-07T10:04:23.191Z,10.10
2023-02-07T10:06:52.655Z,10.55
2023-02-07T10:09:21.956Z,11.52
2023-02-07T10:11:59.641Z,11.82
2023-02-07T10:14:42.454Z,10.65
2023-02-07T10:17:16.500Z,9.45
2023-02-07T10:20:03.182Z,10.35
2023-02-07T10:22:52.354Z,10.25
2023-02-07T10:25:21.466Z,14.05
2023-02-07T10:27:53.756Z,10.50
2023-02-07T10:30:23.080Z,11.77
2023-02-07T10:32:49.824Z,10.48
2023-02-07T10:35:31.009Z,10.40
2023-02-07T10:37:59.344Z,11.05
2023-02-07T10:40:37.406Z,11.35
2023-02-07T10:43:06.999Z,11.65
2023-02-07T10:45:33.286Z,15.32
2023-02-07T10:47:59.566Z,10.15
2023-02-07T10:50:30.108Z,11.43
2023-02-07T10:52:57.856Z,11.27
2023-02-07T10:55:39.002Z,12.02
2023-02-07T10:58:17.640Z,25.20
2023-02-07T11:00:49.845Z,13.00
2023-02-07T11:03:20.734Z,9.43
2023-02-07T11:05:54.320Z,11.70
2023-02-07T11:08:22.927Z,10.57
2023-02-07T11:10:50.139Z,10.63
2023-02-07T11:13:20.836Z,11.82
2023-02-07T11:15:54.978Z,11.10
2023-02-07T11:18:25.042Z,10.57
2023-02-07T11:20:53.243Z,10.38
2023-02-07T11:23:19.589Z,10.40
2023-02-07T11:25:47.075Z,10.88
2023-02-07T11:28:25.411Z,10.52
2023-02-07T11:30:53.249Z,11.80
2023-02-07T11:33:20.719Z,11.20
2023-02-07T11:36:26.098Z,10.02
2023-02-07T11:38:56.611Z,10.10
2023-02-07T11:41:25.461Z,10.27
2023-02-07T11:44:14.399Z,10.75
2023-02-07T11:46:42.215Z,11.35
2023-02-07T11:49:20.364Z,10.18
2023-02-07T11:51:49.873Z,12.48
2023-02-07T11:54:16.424Z,10.98
2023-02-07T11:56:45.284Z,9.88
2023-02-07T11:59:19.515Z,9.35
2023-02-07T12:01:51.428Z,9.65
2023-02-07T12:04:19.901Z,10.90
2023-02-07T12:06:57.279Z,10.20
2023-02-07T12:11:50.615Z,10.13
2023-02-07T12:14:22.647Z,10.15
2023-02-07T12:16:51.706Z,8.63
2023-02-07T12:19:27.741Z,8.27
2023-02-07T12:22:01.955Z,8.82
2023-02-07T12:24:34.732Z,9.52
2023-02-07T12:27:14.117Z,8.57
2023-02-07T12:29:54.508Z,9.55
2023-02-07T12:32:27.184Z,9.52
2023-02-07T12:35:02.955Z,9.38
2023-02-07T12:37:41.388Z,9.30
2023-02-07T12:40:07.588Z,9.65
2023-02-07T12:42:36.887Z,9.43
2023-02-07T12:45:03.935Z,8.73
2023-02-07T12:47:39.355Z,8.18
2023-02-07T12:50:28.352Z,9.07
2023-02-07T12:52:54.550Z,9.27
2023-02-07T12:55:38.613Z,8.75
2023-02-07T12:58:14.371Z,7.90
2023-02-07T13:00:55.343Z,14.68
2023-02-07T13:03:33.817Z,9.63
2023-02-07T13:06:08.910Z,10.27
2023-02-07T13:08:35.138Z,9.25
2023-02-07T13:11:01.383Z,9.38
2023-02-07T13:13:30.789Z,10.05
2023-02-07T13:15:56.986Z,11.23
2023-02-07T13:18:30.383Z,10.20
2023-02-07T13:21:04.162Z,10.00
2023-02-07T13:23:34.454Z,10.15
2023-02-07T13:26:03.581Z,10.20
2023-02-07T13:28:35.793Z,10.00
2023-02-07T13:31:02.105Z,10.13
2023-02-07T13:33:36.253Z,9.77
2023-02-07T13:36:22.474Z,10.98
2023-02-07T13:38:51.632Z,10.00
2023-02-07T13:41:31.566Z,9.55
2023-02-07T13:44:10.246Z,10.45
2023-02-07T13:46:58.196Z,9.82
2023-02-07T13:49:40.527Z,9.77
2023-02-07T13:52:25.202Z,9.77
2023-02-07T13:55:05.498Z,10.32
2023-02-07T13:57:53.230Z,10.60
2023-02-07T14:00:20.943Z,14.95
2023-02-07T14:02:49.951Z,9.82
2023-02-07T14:05:27.739Z,9.25
2023-02-07T14:08:01.574Z,8.32
2023-02-07T14:10:36.986Z,7.93
2023-02-07T14:13:03.344Z,8.73
2023-02-07T14:15:34.705Z,9.07
2023-02-07T14:18:02.894Z,8.52
2023-02-07T14:20:35.634Z,9.82
2023-02-07T14:23:19.023Z,13.13
2023-02-07T14:25:45.909Z,11.77
2023-02-07T14:30:55.864Z,6.25
2023-02-07T14:33:23.011Z,13.80
2023-02-07T14:36:03.976Z,9.20
2023-02-07T14:38:32.610Z,8.18
2023-02-07T14:41:10.717Z,8.20
2023-02-07T14:43:40.386Z,8.15
2023-02-07T14:46:08.850Z,8.18
2023-02-07T14:48:46.120Z,8.43
2023-02-07T14:51:14.472Z,10.88
2023-02-07T14:53:41.761Z,10.68
2023-02-07T14:56:17.068Z,10.55
2023-02-07T14:58:45.348Z,8.90
2023-02-07T15:01:12.889Z,9.30
2023-02-07T15:03:39.441Z,8.13
2023-02-07T15:06:23.812Z,8.43
2023-02-07T15:08:58.228Z,7.47
2023-02-07T15:11:26.659Z,7.88
2023-02-07T15:13:55.863Z,10.65
2023-02-07T15:16:33.685Z,10.88
2023-02-07T15:19:06.302Z,9.73
2023-02-07T15:21:42.814Z,8.82
2023-02-07T15:24:16.705Z,8.87
2023-02-07T15:26:43.050Z,9.52
2023-02-07T15:29:24.535Z,10.68
2023-02-07T15:31:51.734Z,44.78
2023-02-07T15:34:20.143Z,12.02
2023-02-07T15:36:46.823Z,9.25
2023-02-07T15:39:21.288Z,9.07
2023-02-07T15:41:49.315Z,10.02
2023-02-07T15:44:26.035Z,9.70
2023-02-07T15:46:59.790Z,9.73
2023-02-07T15:49:30.551Z,8.73
2023-02-07T15:52:00.563Z,8.27
2023-02-07T15:54:27.853Z,10.35
2023-02-07T15:56:58.852Z,9.65
2023-02-07T15:59:27.370Z,8.68
2023-02-07T16:01:55.123Z,7.97
2023-02-07T16:04:24.929Z,8.02
2023-02-07T16:07:02.582Z,8.75
2023-02-07T16:09:34.749Z,10.38
2023-02-07T16:12:00.987Z,9.32
2023-02-07T16:14:31.566Z,9.57
2023-02-07T16:16:58.227Z,13.82
2023-02-07T16:19:27.963Z,8.38
2023-02-07T16:21:57.216Z,7.85
2023-02-07T16:24:24.414Z,7.65
2023-02-07T16:26:50.881Z,8.68
2023-02-07T16:29:18.948Z,7.93
2023-02-07T16:31:45.683Z,8.68
2023-02-07T16:34:12.987Z,8.90
2023-02-07T16:36:39.287Z,9.77
2023-02-07T16:39:05.773Z,7.43
2023-02-07T16:41:34.358Z,8.88
2023-02-07T16:44:01.637Z,7.45
2023-02-07T16:46:28.772Z,8.60
2023-02-07T16:48:55.011Z,7.00
2023-02-07T16:51:21.243Z,9.95
2023-02-07T16:53:47.581Z,7.93
2023-02-07T16:56:15.113Z,20.48
2023-02-07T16:58:42.168Z,6.90
2023-02-07T17:01:10.298Z,7.00
2023-02-07T17:03:36.557Z,7.78
2023-02-07T17:06:03.522Z,8.00
2023-02-07T17:08:30.268Z,8.82
2023-02-07T17:10:58.291Z,9.93
2023-02-07T17:13:24.580Z,9.60
2023-02-07T17:15:50.821Z,9.27
2023-02-07T17:18:17.069Z,10.98
2023-02-07T17:20:43.446Z,9.88
2023-02-07T17:23:09.672Z,9.68
2023-02-07T17:25:35.951Z,9.25
2023-02-07T17:28:02.375Z,9.68
2023-02-07T17:30:30.261Z,10.85
2023-02-07T17:32:57.683Z,12.63
2023-02-07T17:35:23.934Z,15.73
2023-02-07T17:37:50.198Z,12.50
2023-02-07T17:40:22.641Z,9.35
2023-02-07T17:42:49.327Z,10.93
2023-02-07T17:45:15.565Z,8.63
2023-02-07T17:47:42.020Z,9.63
2023-02-07T17:50:12.872Z,8.93
2023-02-07T17:52:39.082Z,9.63
2023-02-07T17:55:05.580Z,9.02
2023-02-07T17:57:31.812Z,7.53
2023-02-07T17:59:58.034Z,8.27
2023-02-07T18:02:24.244Z,8.93
2023-02-07T18:04:51.566Z,9.27
2023-02-07T18:07:17.789Z,9.02
2023-02-07T18:09:44.053Z,11.20
2023-02-07T18:12:10.412Z,10.55
2023-02-07T18:14:36.648Z,14.05
2023-02-07T18:17:02.958Z,15.57
2023-02-07T18:19:31.772Z,11.70
2023-02-07T18:21:57.983Z,11.45
2023-02-07T18:24:24.202Z,12.40
2023-02-07T18:26:52.600Z,12.02
2023-02-07T18:29:18.953Z,14.48
2023-02-07T18:31:45.220Z,12.65
2023-02-07T18:34:11.467Z,16.83
2023-02-07T18:36:40.194Z,16.73
2023-02-07T18:39:07.203Z,13.07
2023-02-07T18:41:34.164Z,17.30
2023-02-07T18:44:00.404Z,18.77
2023-02-07T18:46:27.586Z,31.00
2023-02-07T18:48:54.553Z,24.65
2023-02-07T18:51:21.272Z,20.90
2023-02-07T18:53:47.851Z,26.65
2023-02-07T18:56:15.644Z,27.92
2023-02-07T18:58:42.213Z,24.90
2023-02-07T19:01:10.171Z,36.10
2023-02-07T19:03:37.788Z,28.70
2023-02-07T19:06:04.837Z,23.77
2023-02-07T19:08:31.029Z,20.50
2023-02-07T19:10:58.268Z,22.65
2023-02-07T19:13:24.689Z,20.15
2023-02-07T19:15:51.246Z,18.98
2023-02-07T19:18:17.517Z,13.35
2023-02-07T19:20:43.785Z,17.23
2023-02-07T19:23:10.184Z,13.95
2023-02-07T19:25:36.424Z,13.55
2023-02-07T19:28:02.752Z,14.40
2023-02-07T19:30:30.593Z,13.80
2023-02-07T19:32:56.864Z,12.40
2023-02-07T19:35:23.097Z,17.40
2023-02-07T19:37:49.348Z,13.25
2023-02-07T19:40:15.570Z,13.18
2023-02-07T19:42:41.954Z,16.10
2023-02-07T19:45:08.438Z,14.90
2023-02-07T19:47:34.715Z,15.25
2023-02-07T19:50:00.961Z,16.23
2023-02-07T19:52:28.942Z,16.52
2023-02-07T19:54:55.976Z,15.95
2023-02-07T19:57:23.002Z,13.40
2023-02-07T19:59:49.537Z,15.98
2023-02-07T20:02:15.818Z,16.42
2023-02-07T20:04:42.072Z,22.65
2023-02-07T20:07:08.304Z,20.08
2023-02-07T20:09:34.903Z,14.95
2023-02-07T20:12:01.180Z,16.13
2023-02-07T20:14:27.551Z,15.45
2023-02-07T20:16:53.841Z,13.23
2023-02-07T20:19:20.459Z,12.85
2023-02-07T20:21:46.809Z,13.10
2023-02-07T20:24:13.112Z,12.70
2023-02-07T20:26:42.359Z,14.05
2023-02-07T20:29:11.066Z,13.85
2023-02-07T20:31:37.993Z,13.63
2023-02-07T20:34:04.525Z,12.88
2023-02-07T20:36:31.534Z,14.02
2023-02-07T20:38:58.146Z,15.13
2023-02-07T20:41:32.578Z,13.10
2023-02-07T20:44:05.073Z,12.13
2023-02-07T20:46:32.591Z,13.48
2023-02-07T20:49:00.086Z,14.77
2023-02-07T20:51:27.097Z,14.32
2023-02-07T20:53:55.206Z,13.68
2023-02-07T20:56:21.437Z,12.70
2023-02-07T20:58:47.658Z,13.02
2023-02-07T21:01:15.433Z,14.57
2023-02-07T21:03:42.057Z,12.88
2023-02-07T21:06:09.325Z,15.23
2023-02-07T21:08:36.614Z,16.23
2023-02-07T21:11:03.524Z,16.33
2023-02-07T21:13:30.279Z,16.60
2023-02-07T21:18:29.876Z,22.63
2023-02-07T21:20:57.021Z,20.58
2023-02-07T21:23:23.577Z,20.75
2023-02-07T21:25:50.189Z,20.10
2023-02-07T21:28:16.492Z,19.58
2023-02-07T21:30:43.132Z,18.98
2023-02-07T21:33:09.505Z,16.95
2023-02-07T21:35:35.736Z,17.63
2023-02-07T21:38:02.078Z,21.17
2023-02-07T21:40:28.311Z,15.00
2023-02-07T21:42:55.095Z,19.58
2023-02-07T21:45:21.364Z,21.15
2023-02-07T21:47:47.974Z,23.10
2023-02-07T21:50:14.266Z,21.52
2023-02-07T21:52:40.503Z,22.52
2023-02-07T21:55:06.878Z,20.90
2023-02-07T21:57:33.097Z,27.95
2023-02-07T21:59:59.388Z,22.98
2023-02-07T22:02:25.680Z,20.30
2023-02-07T22:04:51.976Z,16.60
2023-02-07T22:07:18.190Z,18.23
2023-02-07T22:09:44.405Z,19.42
2023-02-07T22:12:10.622Z,14.98
2023-02-07T22:14:36.842Z,15.52
2023-02-07T22:17:03.283Z,16.73
2023-02-07T22:19:29.514Z,17.20
2023-02-07T22:21:55.776Z,17.17
2023-02-07T22:24:22.064Z,19.23
2023-02-07T22:26:48.415Z,15.18
2023-02-07T22:29:14.682Z,14.82
2023-02-07T22:31:41.547Z,14.85
2023-02-07T22:34:09.121Z,15.40
2023-02-07T22:36:37.411Z,21.77
2023-02-07T22:39:04.842Z,29.25
2023-02-07T22:41:31.617Z,18.88
2023-02-07T22:46:24.746Z,21.48
2023-02-07T22:48:51.718Z,19.40
2023-02-07T22:51:19.143Z,21.30
2023-02-07T22:53:45.663Z,22.23
2023-02-07T22:56:12.268Z,21.23
2023-02-07T22:58:39.637Z,23.27
2023-02-07T23:01:06.262Z,22.52
2023-02-07T23:03:33.246Z,21.58
2023-02-07T23:06:03.411Z,19.42
2023-02-07T23:08:29.667Z,17.73
2023-02-07T23:10:55.906Z,19.00
2023-02-07T23:13:22.311Z,29.50
2023-02-07T23:15:48.570Z,25.25
2023-02-07T23:18:18.236Z,32.78
2023-02-07T23:20:45.084Z,32.47
2023-02-07T23:23:14.181Z,26.83
2023-02-07T23:25:44.340Z,37.15
2023-02-07T23:28:11.029Z,16.45
2023-02-07T23:33:05.198Z,20.80
2023-02-07T23:35:31.563Z,17.48
2023-02-07T23:37:57.794Z,18.83
2023-02-07T23:40:24.028Z,18.23
2023-02-07T23:42:50.272Z,17.88
2023-02-07T23:45:16.516Z,20.30
2023-02-07T23:47:42.769Z,21.75
2023-02-07T23:50:09.092Z,21.73
2023-02-07T23:52:35.367Z,20.60
2023-02-07T23:55:01.628Z,20.48
2023-02-07T23:57:27.917Z,21.42
2023-02-07T23:59:54.148Z,20.65
